createdAt,value
2018-02-23T00:00:40.929Z,-0.13
2018-02-23T00:01:40.786Z,-0.15
2018-02-23T00:02:40.849Z,0.03
2018-02-23T00:03:40.729Z,-0.11
2018-02-23T00:04:40.756Z,-0.04
2018-02-23T00:05:40.665Z,-0.08
2018-02-23T00:06:40.660Z,0.02
2018-02-23T00:07:40.608Z,-0.16
2018-02-23T00:08:40.684Z,-0.12
2018-02-23T00:09:40.538Z,-0.11
2018-02-23T00:10:40.607Z,0.07
2018-02-23T00:11:40.473Z,-0.16
2018-02-23T00:12:40.497Z,-0.19
2018-02-23T00:13:40.413Z,-0.05
2018-02-23T00:14:40.420Z,-0.05
2018-02-23T00:15:40.343Z,-0.12
2018-02-23T00:16:40.437Z,-0.11
2018-02-23T00:17:40.284Z,-0.13
2018-02-23T00:18:40.344Z,-0.11
2018-02-23T00:19:40.222Z,-0.13
2018-02-23T00:20:40.255Z,-0.11
2018-02-23T00:21:40.159Z,-0.15
2018-02-23T00:22:40.272Z,-0.15
2018-02-23T00:23:40.096Z,-0.15
2018-02-23T00:24:40.183Z,-0.15
2018-02-23T00:25:40.032Z,-0.13
2018-02-23T00:26:40.095Z,-0.18
2018-02-23T00:27:39.970Z,-0.22
2018-02-23T00:28:40.011Z,-0.22
2018-02-23T00:29:39.907Z,-0.26
2018-02-23T00:30:40.018Z,-0.26
2018-02-23T00:31:39.840Z,-0.30
2018-02-23T00:32:39.927Z,-0.19
2018-02-23T00:33:39.781Z,-0.19
2018-02-23T00:34:39.844Z,-0.26
2018-02-23T00:35:39.728Z,-0.31
2018-02-23T00:36:39.753Z,-0.27
2018-02-23T00:37:39.652Z,-0.27
2018-02-23T00:38:39.768Z,-0.39
2018-02-23T00:39:39.588Z,-0.27
2018-02-23T00:40:39.680Z,-0.33
2018-02-23T00:41:39.527Z,-0.36
2018-02-23T00:42:39.591Z,-0.33
2018-02-23T00:43:39.463Z,-0.30
2018-02-23T00:44:39.512Z,-0.33
2018-02-23T00:45:39.398Z,-0.27
2018-02-23T00:46:39.518Z,-0.26
2018-02-23T00:47:39.335Z,-0.33
2018-02-23T00:48:39.438Z,-0.31
2018-02-23T00:49:39.272Z,-0.37
2018-02-23T00:50:39.341Z,-0.27
2018-02-23T00:51:39.200Z,-0.27
2018-02-23T00:52:39.251Z,-0.27
2018-02-23T00:53:39.151Z,-0.27
2018-02-23T00:54:39.261Z,-0.29
2018-02-23T00:55:39.077Z,-0.34
2018-02-23T00:56:39.175Z,-0.31
2018-02-23T00:57:39.013Z,-0.34
2018-02-23T00:58:39.091Z,-0.36
2018-02-23T00:59:38.953Z,-0.36
2018-02-23T01:00:39.102Z,-0.34
2018-02-23T01:01:38.891Z,-0.36
2018-02-23T01:02:39.006Z,-0.30
2018-02-23T01:03:38.823Z,-0.34
2018-02-23T01:04:38.924Z,-0.42
2018-02-23T01:05:38.760Z,-0.34
2018-02-23T01:06:38.836Z,-0.36
2018-02-23T01:07:38.699Z,-0.41
2018-02-23T01:08:38.749Z,-0.39
2018-02-23T01:09:38.636Z,-0.45
2018-02-23T01:10:38.761Z,-0.36
2018-02-23T01:11:38.571Z,-0.34
2018-02-23T01:12:38.671Z,-0.36
2018-02-23T01:13:38.518Z,-0.36
2018-02-23T01:14:38.584Z,-0.41
2018-02-23T01:15:38.445Z,-0.48
2018-02-23T01:16:38.497Z,-0.42
2018-02-23T01:17:38.375Z,-0.51
2018-02-23T01:18:38.510Z,-0.36
2018-02-23T01:19:38.317Z,-0.50
2018-02-23T01:20:38.421Z,-0.39
2018-02-23T01:21:38.251Z,-0.47
2018-02-23T01:22:38.336Z,-0.41
2018-02-23T01:23:38.186Z,-0.44
2018-02-23T01:24:38.249Z,-0.47
2018-02-23T01:25:38.128Z,-0.45
2018-02-23T01:26:38.257Z,-0.50
2018-02-23T01:27:38.061Z,-0.42
2018-02-23T01:28:38.182Z,-0.44
2018-02-23T01:29:37.998Z,-0.48
2018-02-23T01:30:38.123Z,-0.47
2018-02-23T01:31:37.933Z,-0.50
2018-02-23T01:32:37.996Z,-0.42
2018-02-23T01:33:37.866Z,-0.47
2018-02-23T01:34:38.009Z,-0.45
2018-02-23T01:35:37.804Z,-0.47
2018-02-23T01:36:37.921Z,-0.48
2018-02-23T01:37:37.742Z,-0.44
2018-02-23T01:38:37.832Z,-0.51
2018-02-23T01:39:37.677Z,-0.51
2018-02-23T01:40:37.746Z,-0.47
2018-02-23T01:41:37.608Z,-0.48
2018-02-23T01:42:37.766Z,-0.42
2018-02-23T01:43:37.545Z,-0.44
2018-02-23T01:44:37.669Z,-0.45
2018-02-23T01:45:37.483Z,-0.50
2018-02-23T01:46:37.583Z,-0.54
2018-02-23T01:47:37.418Z,-0.50
2018-02-23T01:48:37.584Z,-0.57
2018-02-23T01:49:37.354Z,-0.54
2018-02-23T01:50:37.507Z,-0.59
2018-02-23T01:51:37.293Z,-0.59
2018-02-23T01:52:37.413Z,-0.48
2018-02-23T01:53:37.225Z,-0.52
2018-02-23T01:54:37.328Z,-0.57
2018-02-23T01:55:37.162Z,-0.66
2018-02-23T01:56:37.244Z,-0.70
2018-02-23T01:57:37.095Z,-0.62
2018-02-23T01:58:37.256Z,-0.65
2018-02-23T01:59:37.033Z,-0.68
2018-02-23T02:00:37.172Z,-0.66
2018-02-23T02:01:36.969Z,-0.59
2018-02-23T02:02:37.080Z,-0.65
2018-02-23T02:03:36.902Z,-0.65
2018-02-23T02:04:36.986Z,-0.66
2018-02-23T02:05:36.842Z,-0.65
2018-02-23T02:06:37.006Z,-0.63
2018-02-23T02:09:40.630Z,-0.63
2018-02-23T02:10:08.469Z,-0.69
2018-02-23T02:12:01.633Z,-0.65
2018-02-23T02:13:01.417Z,-0.77
2018-02-23T02:14:54.591Z,-0.68
2018-02-23T02:15:54.468Z,-0.69
2018-02-23T02:17:47.440Z,-0.68
2018-02-23T02:18:47.329Z,-0.72
2018-02-23T02:20:40.398Z,-0.68
2018-02-23T02:21:40.285Z,-0.84
2018-02-23T02:23:33.357Z,-0.84
2018-02-23T02:24:33.260Z,-0.78
2018-02-23T02:26:26.212Z,-0.84
2018-02-23T02:27:26.092Z,-0.77
2018-02-23T02:28:26.197Z,-0.86
2018-02-23T02:29:26.032Z,-0.94
2018-02-23T02:30:26.109Z,-0.92
2018-02-23T02:31:25.962Z,-0.81
2018-02-23T02:32:26.021Z,-0.89
2018-02-23T02:33:25.902Z,-0.86
2018-02-23T02:34:25.931Z,-0.81
2018-02-23T02:35:25.834Z,-0.87
2018-02-23T02:36:25.842Z,-0.87
2018-02-23T02:37:25.773Z,-0.81
2018-02-23T02:38:25.855Z,-0.83
2018-02-23T02:39:25.717Z,-0.80
2018-02-23T02:40:25.768Z,-0.89
2018-02-23T02:41:25.640Z,-0.89
2018-02-23T02:42:25.676Z,-0.91
2018-02-23T02:43:25.574Z,-0.94
2018-02-23T02:44:25.590Z,-0.89
2018-02-23T02:45:25.508Z,-0.87
2018-02-23T02:46:25.603Z,-0.87
2018-02-23T02:47:25.445Z,-0.94
2018-02-23T02:48:25.545Z,-1.00
2018-02-23T02:49:25.381Z,-0.95
2018-02-23T02:50:25.416Z,-0.97
2018-02-23T02:51:25.316Z,-0.99
2018-02-23T02:52:25.336Z,-0.99
2018-02-23T02:53:25.252Z,-0.95
2018-02-23T02:54:25.353Z,-0.99
2018-02-23T02:55:25.188Z,-0.94
2018-02-23T02:56:25.261Z,-0.89
2018-02-23T02:57:25.114Z,-0.92
2018-02-23T02:58:25.170Z,-0.99
2018-02-23T02:59:25.059Z,-0.92
2018-02-23T03:00:25.090Z,-1.00
2018-02-23T03:01:24.996Z,-0.91
2018-02-23T03:02:25.100Z,-0.99
2018-02-23T03:03:24.927Z,-0.99
2018-02-23T03:04:25.013Z,-0.94
2018-02-23T03:05:24.862Z,-0.89
2018-02-23T03:06:24.921Z,-0.95
2018-02-23T03:07:24.797Z,-0.91
2018-02-23T03:08:24.837Z,-0.97
2018-02-23T03:09:24.734Z,-1.00
2018-02-23T03:10:24.847Z,-0.94
2018-02-23T03:11:24.664Z,-0.97
2018-02-23T03:12:24.754Z,-1.00
2018-02-23T03:13:24.604Z,-1.06
2018-02-23T03:14:24.670Z,-0.97
2018-02-23T03:15:24.539Z,-1.02
2018-02-23T03:16:24.579Z,-1.02
2018-02-23T03:17:24.462Z,-0.94
2018-02-23T03:18:24.594Z,-1.03
2018-02-23T03:19:24.408Z,-1.03
2018-02-23T03:20:24.503Z,-1.07
2018-02-23T03:21:24.342Z,-1.07
2018-02-23T03:22:24.416Z,-1.05
2018-02-23T03:23:24.279Z,-1.05
2018-02-23T03:24:24.329Z,-1.09
2018-02-23T03:25:24.213Z,-1.02
2018-02-23T03:26:24.343Z,-1.07
2018-02-23T03:27:24.150Z,-1.03
2018-02-23T03:28:24.253Z,-1.07
2018-02-23T03:29:24.082Z,-1.09
2018-02-23T03:30:24.165Z,-1.10
2018-02-23T03:31:24.018Z,-1.09
2018-02-23T03:32:24.095Z,-1.09
2018-02-23T03:33:23.953Z,-1.10
2018-02-23T03:34:24.083Z,-1.12
2018-02-23T03:35:23.889Z,-1.12
2018-02-23T03:36:24.004Z,-1.07
2018-02-23T03:37:23.830Z,-1.13
2018-02-23T03:38:23.914Z,-1.07
2018-02-23T03:39:23.760Z,-1.17
2018-02-23T03:40:23.824Z,-1.15
2018-02-23T03:41:23.693Z,-1.15
2018-02-23T03:42:23.840Z,-1.21
2018-02-23T03:43:23.629Z,-1.17
2018-02-23T03:44:23.755Z,-1.13
2018-02-23T03:45:23.563Z,-1.13
2018-02-23T03:46:23.683Z,-1.17
2018-02-23T03:47:23.504Z,-1.17
2018-02-23T03:48:23.574Z,-1.12
2018-02-23T03:49:23.432Z,-1.13
2018-02-23T03:50:23.590Z,-1.10
2018-02-23T03:51:23.368Z,-1.21
2018-02-23T03:52:23.499Z,-1.18
2018-02-23T03:53:23.306Z,-1.21
2018-02-23T03:54:23.408Z,-1.21
2018-02-23T03:55:23.257Z,-1.12
2018-02-23T03:56:23.322Z,-1.21
2018-02-23T03:57:23.180Z,-1.20
2018-02-23T03:58:23.234Z,-1.18
2018-02-23T03:59:23.106Z,-1.23
2018-02-23T04:00:23.248Z,-1.21
2018-02-23T04:01:23.047Z,-1.24
2018-02-23T04:02:23.159Z,-1.28
2018-02-23T04:03:22.977Z,-1.23
2018-02-23T04:04:23.078Z,-1.21
2018-02-23T04:05:22.912Z,-1.25
2018-02-23T04:06:23.085Z,-1.24
2018-02-23T04:07:22.847Z,-1.25
2018-02-23T04:08:22.996Z,-1.23
2018-02-23T04:09:22.782Z,-1.24
2018-02-23T04:10:22.908Z,-1.20
2018-02-23T04:11:22.717Z,-1.23
2018-02-23T04:12:22.820Z,-1.15
2018-02-23T04:13:22.659Z,-1.21
2018-02-23T04:14:22.732Z,-1.23
2018-02-23T04:15:22.593Z,-1.18
2018-02-23T04:16:22.745Z,-1.18
2018-02-23T04:17:22.522Z,-1.18
2018-02-23T04:18:22.657Z,-1.17
2018-02-23T04:19:22.458Z,-1.18
2018-02-23T04:20:22.567Z,-1.21
2018-02-23T04:21:22.393Z,-1.20
2018-02-23T04:22:22.479Z,-1.25
2018-02-23T04:23:22.331Z,-1.20
2018-02-23T04:24:22.492Z,-1.21
2018-02-23T04:25:22.259Z,-1.15
2018-02-23T04:26:22.411Z,-1.24
2018-02-23T04:27:22.196Z,-1.25
2018-02-23T04:28:22.316Z,-1.28
2018-02-23T04:29:22.132Z,-1.27
2018-02-23T04:30:22.231Z,-1.18
2018-02-23T04:31:22.065Z,-1.35
2018-02-23T04:32:22.247Z,-1.23
2018-02-23T04:33:22.010Z,-1.31
2018-02-23T04:34:22.154Z,-1.36
2018-02-23T04:35:21.926Z,-1.25
2018-02-23T04:36:21.964Z,-1.33
2018-02-23T04:37:21.865Z,-1.31
2018-02-23T04:38:21.874Z,-1.18
2018-02-23T04:39:21.803Z,-1.25
2018-02-23T04:40:21.888Z,-1.27
2018-02-23T04:41:21.734Z,-1.21
2018-02-23T04:42:21.801Z,-1.25
2018-02-23T04:43:21.674Z,-1.23
2018-02-23T04:44:21.710Z,-1.27
2018-02-23T04:45:21.606Z,-1.35
2018-02-23T04:46:21.616Z,-1.25
2018-02-23T04:47:21.540Z,-1.24
2018-02-23T04:48:21.533Z,-1.27
2018-02-23T04:49:21.473Z,-1.21
2018-02-23T04:50:21.548Z,-1.23
2018-02-23T04:51:21.413Z,-1.21
2018-02-23T04:52:21.458Z,-1.24
2018-02-23T04:53:21.345Z,-1.24
2018-02-23T04:54:21.371Z,-1.15
2018-02-23T04:55:21.284Z,-1.13
2018-02-23T04:56:21.281Z,-1.18
2018-02-23T04:57:21.221Z,-1.21
2018-02-23T04:58:21.295Z,-1.18
2018-02-23T04:59:21.146Z,-1.20
2018-02-23T05:00:21.208Z,-1.23
2018-02-23T05:01:21.081Z,-1.20
2018-02-23T05:02:21.118Z,-1.24
2018-02-23T05:03:21.021Z,-1.28
2018-02-23T05:04:21.031Z,-1.25
2018-02-23T05:05:20.950Z,-1.27
2018-02-23T05:06:21.043Z,-1.20
2018-02-23T05:07:20.883Z,-1.24
2018-02-23T05:08:20.972Z,-1.20
2018-02-23T05:09:20.820Z,-1.25
2018-02-23T05:10:20.867Z,-1.25
2018-02-23T05:11:20.757Z,-1.25
2018-02-23T05:12:20.746Z,-1.21
2018-02-23T05:13:20.693Z,-1.33
2018-02-23T05:14:20.795Z,-1.30
2018-02-23T05:15:20.631Z,-1.24
2018-02-23T05:16:20.706Z,-1.33
2018-02-23T05:17:20.559Z,-1.24
2018-02-23T05:18:20.617Z,-1.39
2018-02-23T05:19:20.495Z,-1.23
2018-02-23T05:20:20.540Z,-1.21
2018-02-23T05:21:20.429Z,-1.23
2018-02-23T05:22:20.543Z,-1.25
2018-02-23T05:23:20.363Z,-1.25
2018-02-23T05:24:20.455Z,-1.21
2018-02-23T05:25:20.295Z,-1.17
2018-02-23T05:26:20.368Z,-1.33
2018-02-23T05:27:20.232Z,-1.27
2018-02-23T05:28:20.294Z,-1.31
2018-02-23T05:29:20.169Z,-1.21
2018-02-23T05:30:20.288Z,-1.31
2018-02-23T05:31:20.099Z,-1.30
2018-02-23T05:32:20.201Z,-1.28
2018-02-23T05:33:20.035Z,-1.33
2018-02-23T05:34:20.113Z,-1.25
2018-02-23T05:35:19.979Z,-1.35
2018-02-23T05:36:20.023Z,-1.30
2018-02-23T05:37:19.921Z,-1.24
2018-02-23T05:38:19.936Z,-1.31
2018-02-23T05:39:19.838Z,-1.28
2018-02-23T05:40:19.951Z,-1.31
2018-02-23T05:41:19.770Z,-1.41
2018-02-23T05:42:19.863Z,-1.45
2018-02-23T05:43:19.710Z,-1.42
2018-02-23T05:44:19.775Z,-1.39
2018-02-23T05:45:19.642Z,-1.41
2018-02-23T05:46:19.681Z,-1.46
2018-02-23T05:47:19.576Z,-1.46
2018-02-23T05:48:19.688Z,-1.43
2018-02-23T05:49:19.511Z,-1.39
2018-02-23T05:50:19.613Z,-1.41
2018-02-23T05:51:19.445Z,-1.45
2018-02-23T05:52:19.528Z,-1.41
2018-02-23T05:53:19.393Z,-1.42
2018-02-23T05:54:19.435Z,-1.42
2018-02-23T05:55:19.316Z,-1.42
2018-02-23T05:56:19.448Z,-1.38
2018-02-23T05:57:19.248Z,-1.39
2018-02-23T05:58:19.363Z,-1.38
2018-02-23T05:59:19.182Z,-1.39
2018-02-23T06:00:19.278Z,-1.43
2018-02-23T06:01:19.120Z,-1.41
2018-02-23T06:02:19.195Z,-1.33
2018-02-23T06:03:19.051Z,-1.43
2018-02-23T06:04:19.188Z,-1.43
2018-02-23T06:05:18.985Z,-1.48
2018-02-23T06:06:19.107Z,-1.42
2018-02-23T06:07:18.925Z,-1.38
2018-02-23T06:08:19.032Z,-1.38
2018-02-23T06:09:18.855Z,-1.43
2018-02-23T06:10:18.927Z,-1.45
2018-02-23T06:11:18.792Z,-1.46
2018-02-23T06:12:18.945Z,-1.39
2018-02-23T06:13:18.744Z,-1.51
2018-02-23T06:14:18.857Z,-1.48
2018-02-23T06:15:18.658Z,-1.46
2018-02-23T06:16:18.770Z,-1.49
2018-02-23T06:17:18.594Z,-1.56
2018-02-23T06:18:18.677Z,-1.54
2018-02-23T06:19:18.528Z,-1.46
2018-02-23T06:20:18.589Z,-1.49
2018-02-23T06:21:18.461Z,-1.53
2018-02-23T06:22:18.603Z,-1.56
2018-02-23T06:23:18.394Z,-1.49
2018-02-23T06:24:18.516Z,-1.46
2018-02-23T06:25:18.332Z,-1.46
2018-02-23T06:26:18.424Z,-1.48
2018-02-23T06:27:18.265Z,-1.51
2018-02-23T06:28:18.339Z,-1.48
2018-02-23T06:29:18.204Z,-1.46
2018-02-23T06:30:18.355Z,-1.53
2018-02-23T06:31:18.180Z,-1.43
2018-02-23T06:32:18.267Z,-1.42
2018-02-23T06:33:18.067Z,-1.42
2018-02-23T06:34:18.174Z,-1.51
2018-02-23T06:35:18.003Z,-1.41
2018-02-23T06:36:18.087Z,-1.42
2018-02-23T06:37:17.938Z,-1.38
2018-02-23T06:38:18.103Z,-1.41
2018-02-23T06:39:17.871Z,-1.46
2018-02-23T06:40:18.014Z,-1.36
2018-02-23T06:41:17.807Z,-1.41
2018-02-23T06:42:17.926Z,-1.46
2018-02-23T06:43:17.743Z,-1.39
2018-02-23T06:44:17.832Z,-1.41
2018-02-23T06:45:17.680Z,-1.35
2018-02-23T06:46:17.854Z,-1.30
2018-02-23T06:47:17.610Z,-1.36
2018-02-23T06:48:17.791Z,-1.31
2018-02-23T06:49:17.562Z,-1.30
2018-02-23T06:50:17.674Z,-1.23
2018-02-23T06:51:17.484Z,-1.36
2018-02-23T06:52:17.607Z,-1.31
2018-02-23T06:53:17.417Z,-1.18
2018-02-23T06:54:18.144Z,-1.31
2018-02-23T06:55:17.347Z,-1.30
2018-02-23T06:56:17.510Z,-1.28
2018-02-23T06:57:17.283Z,-1.27
2018-02-23T06:58:17.421Z,-1.23
2018-02-23T06:59:17.215Z,-1.39
2018-02-23T07:00:17.256Z,-1.39
2018-02-23T07:01:17.151Z,-1.23
2018-02-23T07:02:17.166Z,-1.31
2018-02-23T07:03:17.085Z,-1.23
2018-02-23T07:04:17.154Z,-1.21
2018-02-23T07:05:17.021Z,-1.24
2018-02-23T07:06:17.063Z,-1.18
2018-02-23T07:07:16.956Z,-1.23
2018-02-23T07:08:16.979Z,-1.17
2018-02-23T07:09:16.884Z,-1.13
2018-02-23T07:10:16.890Z,-1.24
2018-02-23T07:11:16.839Z,-1.12
2018-02-23T07:12:16.907Z,-1.13
2018-02-23T07:13:16.758Z,-1.09
2018-02-23T07:14:16.834Z,-1.09
2018-02-23T07:15:16.693Z,-1.10
2018-02-23T07:16:16.728Z,-1.12
2018-02-23T07:17:16.625Z,-1.06
2018-02-23T07:18:17.665Z,-1.09
2018-02-23T07:19:16.563Z,-1.03
2018-02-23T07:20:16.654Z,-1.05
2018-02-23T07:21:16.494Z,-1.02
2018-02-23T07:22:16.579Z,-0.95
2018-02-23T07:23:16.419Z,-1.02
2018-02-23T07:24:16.475Z,-0.94
2018-02-23T07:26:51.022Z,-0.83
2018-02-23T07:27:48.032Z,-0.91
2018-02-23T07:29:40.909Z,-0.84
2018-02-23T07:30:40.802Z,-0.81
2018-02-23T07:32:33.723Z,-0.77
2018-02-23T07:33:33.626Z,-0.87
2018-02-23T07:35:26.603Z,-0.72
2018-02-23T07:36:26.477Z,-0.72
2018-02-23T07:38:19.434Z,-0.69
2018-02-23T07:39:19.327Z,-0.62
2018-02-23T07:41:12.292Z,-0.65
2018-02-23T07:42:12.173Z,-0.59
2018-02-23T07:43:12.169Z,-0.60
2018-02-23T07:44:12.111Z,-0.66
2018-02-23T07:45:12.182Z,-0.50
2018-02-23T07:46:12.046Z,-0.52
2018-02-23T07:47:12.094Z,-0.63
2018-02-23T07:48:11.982Z,-0.60
2018-02-23T07:49:12.016Z,-0.52
2018-02-23T07:50:11.916Z,-0.51
2018-02-23T07:51:11.915Z,-0.44
2018-02-23T07:52:11.854Z,-0.39
2018-02-23T07:53:11.925Z,-0.42
2018-02-23T07:54:11.792Z,-0.47
2018-02-23T07:55:11.851Z,-0.45
2018-02-23T07:56:11.719Z,-0.34
2018-02-23T07:57:11.745Z,-0.37
2018-02-23T07:58:11.658Z,-0.37
2018-02-23T07:59:11.653Z,-0.30
2018-02-23T08:00:11.586Z,-0.30
2018-02-23T08:01:11.657Z,-0.41
2018-02-23T08:02:11.535Z,-0.36
2018-02-23T08:03:11.575Z,-0.23
2018-02-23T08:04:11.464Z,-0.18
2018-02-23T08:05:11.504Z,-0.22
2018-02-23T08:06:11.412Z,-0.19
2018-02-23T08:07:11.397Z,-0.22
2018-02-23T08:08:11.328Z,-0.18
2018-02-23T08:09:11.439Z,-0.12
2018-02-23T08:10:11.266Z,-0.06
2018-02-23T08:11:11.318Z,-0.13
2018-02-23T08:12:11.213Z,-0.08
2018-02-23T08:13:11.232Z,-0.11
2018-02-23T08:14:11.143Z,-0.12
2018-02-23T08:15:11.148Z,-0.08
2018-02-23T08:16:11.067Z,0.03
2018-02-23T08:17:11.151Z,-0.04
2018-02-23T08:18:11.005Z,0.03
2018-02-23T08:19:11.060Z,0.07
2018-02-23T08:20:10.942Z,0.06
2018-02-23T08:21:10.971Z,0.07
2018-02-23T08:22:10.879Z,0.12
2018-02-23T08:23:10.972Z,0.13
2018-02-23T08:24:10.822Z,0.23
2018-02-23T08:25:10.970Z,0.16
2018-02-23T08:26:10.753Z,0.20
2018-02-23T08:27:10.866Z,0.16
2018-02-23T08:28:10.680Z,0.16
2018-02-23T08:29:10.795Z,0.28
2018-02-23T08:30:10.633Z,0.30
2018-02-23T08:31:10.697Z,0.28
2018-02-23T08:32:10.583Z,0.25
2018-02-23T08:33:11.648Z,0.34
2018-02-23T08:34:10.515Z,0.39
2018-02-23T08:35:10.624Z,0.36
2018-02-23T08:36:10.427Z,0.42
2018-02-23T08:37:10.557Z,0.46
2018-02-23T08:38:10.361Z,0.49
2018-02-23T08:39:10.446Z,0.51
2018-02-23T08:40:10.302Z,0.45
2018-02-23T08:41:10.458Z,0.46
2018-02-23T08:42:10.237Z,0.46
2018-02-23T08:43:10.370Z,0.46
2018-02-23T08:44:10.169Z,0.62
2018-02-23T08:45:10.282Z,0.58
2018-02-23T08:46:10.151Z,0.58
2018-02-23T08:47:10.206Z,0.65
2018-02-23T08:48:10.058Z,0.65
2018-02-23T08:49:10.206Z,0.60
2018-02-23T08:50:09.985Z,0.58
2018-02-23T08:51:10.122Z,0.64
2018-02-23T08:52:09.912Z,0.70
2018-02-23T08:53:10.048Z,0.72
2018-02-23T08:54:09.851Z,0.72
2018-02-23T08:55:09.943Z,0.76
2018-02-23T08:56:09.786Z,0.79
2018-02-23T08:57:09.957Z,0.75
2018-02-23T08:58:09.719Z,0.85
2018-02-23T08:59:09.867Z,0.82
2018-02-23T09:00:09.661Z,0.85
2018-02-23T09:01:09.778Z,0.86
2018-02-23T09:02:09.597Z,0.86
2018-02-23T09:03:09.689Z,0.94
2018-02-23T09:04:09.529Z,0.89
2018-02-23T09:05:09.703Z,0.82
2018-02-23T09:06:09.463Z,0.88
2018-02-23T09:07:09.619Z,0.88
2018-02-23T09:08:09.419Z,0.83
2018-02-23T09:09:09.527Z,1.00
2018-02-23T09:10:09.351Z,0.92
2018-02-23T09:11:09.439Z,1.03
2018-02-23T09:12:09.274Z,1.00
2018-02-23T09:13:09.456Z,1.06
2018-02-23T09:14:09.211Z,1.07
2018-02-23T09:15:09.364Z,1.03
2018-02-23T09:16:09.146Z,1.14
2018-02-23T09:17:09.277Z,1.10
2018-02-23T09:18:09.082Z,1.12
2018-02-23T09:19:09.187Z,1.26
2018-02-23T09:20:09.032Z,1.18
2018-02-23T09:21:09.201Z,1.29
2018-02-23T09:22:08.956Z,1.29
2018-02-23T09:23:09.008Z,1.33
2018-02-23T09:24:08.891Z,1.44
2018-02-23T09:25:08.923Z,1.51
2018-02-23T09:26:08.832Z,1.65
2018-02-23T09:27:08.829Z,1.79
2018-02-23T09:28:08.767Z,1.98
2018-02-23T09:29:08.847Z,2.52
2018-02-23T09:30:08.717Z,3.31
2018-02-23T09:31:08.759Z,4.22
2018-02-23T09:32:08.651Z,5.13
2018-02-23T09:33:08.669Z,5.89
2018-02-23T09:34:08.582Z,6.84
2018-02-23T09:35:08.565Z,7.23
2018-02-23T09:36:08.516Z,7.44
2018-02-23T09:37:08.576Z,7.55
2018-02-23T09:38:08.458Z,7.82
2018-02-23T09:39:08.509Z,8.12
2018-02-23T09:40:08.396Z,8.36
2018-02-23T09:41:08.399Z,8.78
2018-02-23T09:42:08.349Z,9.32
2018-02-23T09:43:08.407Z,9.75
2018-02-23T09:44:08.289Z,10.33
2018-02-23T09:45:08.385Z,10.44
2018-02-23T09:46:08.238Z,10.37
2018-02-23T09:47:08.229Z,10.36
2018-02-23T09:48:08.189Z,10.47
2018-02-23T09:49:10.220Z,10.76
2018-02-23T09:50:08.229Z,11.19
2018-02-23T09:51:08.179Z,11.49
2018-02-23T09:52:08.096Z,11.77
2018-02-23T09:53:08.171Z,11.77
2018-02-23T09:54:08.052Z,12.04
2018-02-23T09:55:08.104Z,12.39
2018-02-23T09:56:08.124Z,12.70
2018-02-23T09:57:08.508Z,12.71
2018-02-23T09:58:08.458Z,12.69
2018-02-23T09:59:08.838Z,12.63
2018-02-23T10:00:08.006Z,12.44
2018-02-23T10:01:07.905Z,12.57
2018-02-23T10:02:07.918Z,12.26
2018-02-23T10:03:07.861Z,12.21
2018-02-23T10:04:07.931Z,11.80
2018-02-23T10:05:07.838Z,11.77
2018-02-23T10:06:07.838Z,12.06
2018-02-23T10:07:07.789Z,12.37
2018-02-23T10:08:07.864Z,12.15
2018-02-23T10:09:07.748Z,12.09
2018-02-23T10:10:07.761Z,12.15
2018-02-23T10:11:07.707Z,12.45
2018-02-23T10:12:07.773Z,12.63
2018-02-23T10:13:07.671Z,13.04
2018-02-23T10:14:07.682Z,13.38
2018-02-23T10:15:07.636Z,13.14
2018-02-23T10:16:07.699Z,13.24
2018-02-23T10:17:07.599Z,13.17
2018-02-23T10:18:07.605Z,13.41
2018-02-23T10:19:07.560Z,13.41
2018-02-23T10:20:07.618Z,13.36
2018-02-23T10:21:07.528Z,13.54
2018-02-23T10:22:07.579Z,13.49
2018-02-23T10:23:07.493Z,13.77
2018-02-23T10:24:07.592Z,14.09
2018-02-23T10:25:07.458Z,14.68
2018-02-23T10:26:07.608Z,15.03
2018-02-23T10:27:07.424Z,15.31
2018-02-23T10:28:07.413Z,15.56
2018-02-23T10:29:07.390Z,15.39
2018-02-23T10:30:07.534Z,15.23
2018-02-23T10:31:07.357Z,14.83
2018-02-23T10:32:07.444Z,14.47
2018-02-23T10:33:07.332Z,13.94
2018-02-23T10:34:07.311Z,13.73
2018-02-23T10:35:07.294Z,13.46
2018-02-23T10:36:07.385Z,13.81
2018-02-23T10:37:07.260Z,13.96
2018-02-23T10:38:07.382Z,14.31
2018-02-23T10:39:07.229Z,14.57
2018-02-23T10:40:07.308Z,14.90
2018-02-23T10:41:07.197Z,15.11
2018-02-23T10:42:07.305Z,14.98
2018-02-23T10:43:07.165Z,14.98
2018-02-23T10:44:07.330Z,15.06
2018-02-23T10:45:07.137Z,15.35
2018-02-23T10:46:07.235Z,15.63
2018-02-23T10:47:07.102Z,15.52
2018-02-23T10:48:07.255Z,15.66
2018-02-23T10:49:07.074Z,15.54
2018-02-23T10:50:07.161Z,15.49
2018-02-23T10:51:07.054Z,15.66
2018-02-23T10:52:07.173Z,15.54
2018-02-23T10:53:07.014Z,15.74
2018-02-23T10:54:07.088Z,15.52
2018-02-23T10:55:06.982Z,15.46
2018-02-23T10:56:07.099Z,15.24
2018-02-23T10:57:06.960Z,14.84
2018-02-23T10:58:07.115Z,14.43
2018-02-23T10:59:06.923Z,14.31
2018-02-23T11:00:07.024Z,14.46
2018-02-23T11:01:06.896Z,14.72
2018-02-23T11:02:07.038Z,14.72
2018-02-23T11:03:06.863Z,15.09
2018-02-23T11:04:06.950Z,15.45
2018-02-23T11:05:06.831Z,16.03
2018-02-23T11:06:06.966Z,16.67
2018-02-23T11:07:06.802Z,17.08
2018-02-23T11:08:06.977Z,17.25
2018-02-23T11:09:06.773Z,17.11
2018-02-23T11:10:06.894Z,17.18
2018-02-23T11:11:06.743Z,17.15
2018-02-23T11:12:06.802Z,17.10
2018-02-23T11:13:06.715Z,17.10
2018-02-23T11:14:06.814Z,17.18
2018-02-23T11:15:06.687Z,17.33
2018-02-23T11:16:06.829Z,17.51
2018-02-23T11:17:06.658Z,17.36
2018-02-23T11:18:06.843Z,17.44
2018-02-23T11:19:06.645Z,17.32
2018-02-23T11:20:06.754Z,17.29
2018-02-23T11:21:06.602Z,17.36
2018-02-23T11:22:06.769Z,17.66
2018-02-23T11:23:06.574Z,17.55
2018-02-23T11:24:06.682Z,17.95
2018-02-23T11:25:06.545Z,17.88
2018-02-23T11:26:07.164Z,17.85
2018-02-23T11:27:06.702Z,17.88
2018-02-23T11:28:06.506Z,17.73
2018-02-23T11:29:06.611Z,17.82
2018-02-23T11:30:06.479Z,17.99
2018-02-23T11:31:06.624Z,17.85
2018-02-23T11:32:06.450Z,17.95
2018-02-23T11:33:06.437Z,17.81
2018-02-23T11:34:06.421Z,17.13
2018-02-23T11:35:06.550Z,16.65
2018-02-23T11:36:06.437Z,16.48
2018-02-23T11:37:06.564Z,16.68
2018-02-23T11:38:06.374Z,16.71
2018-02-23T11:39:06.476Z,16.40
2018-02-23T11:40:06.344Z,16.00
2018-02-23T11:41:06.532Z,16.09
2018-02-23T11:42:06.343Z,15.93
2018-02-23T11:43:06.401Z,16.11
2018-02-23T11:44:06.293Z,16.56
2018-02-23T11:45:06.314Z,16.85
2018-02-23T11:46:06.268Z,17.04
2018-02-23T11:47:06.327Z,16.30
2018-02-23T11:48:06.240Z,15.64
2018-02-23T11:49:06.343Z,15.21
2018-02-23T11:50:06.225Z,14.57
2018-02-23T11:51:07.407Z,14.44
2018-02-23T11:52:06.186Z,14.24
2018-02-23T11:53:06.266Z,14.37
2018-02-23T11:54:06.159Z,14.81
2018-02-23T11:55:06.178Z,15.17
2018-02-23T11:56:06.131Z,15.15
2018-02-23T11:57:06.197Z,14.95
2018-02-23T11:58:06.200Z,14.84
2018-02-23T11:59:06.093Z,14.62
2018-02-23T12:00:06.111Z,14.29
2018-02-23T12:01:06.064Z,14.35
2018-02-23T12:02:06.125Z,14.24
2018-02-23T12:03:06.039Z,13.74
2018-02-23T12:04:06.027Z,13.21
2018-02-23T12:05:06.010Z,12.87
2018-02-23T12:06:06.048Z,12.71
2018-02-23T12:07:06.009Z,12.93
2018-02-23T12:08:06.040Z,12.89
2018-02-23T12:09:05.956Z,13.09
2018-02-23T12:10:06.080Z,13.15
2018-02-23T12:11:05.928Z,13.09
2018-02-23T12:12:05.990Z,13.33
2018-02-23T12:13:05.900Z,13.40
2018-02-23T12:14:06.087Z,13.55
2018-02-23T12:15:06.012Z,13.62
2018-02-23T12:16:05.865Z,13.62
2018-02-23T12:17:05.923Z,13.65
2018-02-23T12:18:05.835Z,13.55
2018-02-23T12:19:05.937Z,13.70
2018-02-23T12:20:05.803Z,13.70
2018-02-23T12:21:05.790Z,13.71
2018-02-23T12:22:05.773Z,13.69
2018-02-23T12:23:05.861Z,13.70
2018-02-23T12:24:05.744Z,13.63
2018-02-23T12:25:05.877Z,13.54
2018-02-23T12:26:05.718Z,13.46
2018-02-23T12:27:05.789Z,13.47
2018-02-23T12:28:05.688Z,13.55
2018-02-23T12:29:05.799Z,13.47
2018-02-23T12:30:05.658Z,13.32
2018-02-23T12:31:05.646Z,13.43
2018-02-23T12:32:05.629Z,13.54
2018-02-23T12:33:05.728Z,13.69
2018-02-23T12:34:05.603Z,13.65
2018-02-23T12:35:05.743Z,13.59
2018-02-23T12:36:05.571Z,13.17
2018-02-23T12:37:05.561Z,13.11
2018-02-23T12:38:05.543Z,13.06
2018-02-23T12:39:05.667Z,13.07
2018-02-23T12:40:05.516Z,12.99
2018-02-23T12:41:05.581Z,12.95
2018-02-23T12:42:05.488Z,12.93
2018-02-23T12:43:05.591Z,12.93
2018-02-23T12:44:05.457Z,12.87
2018-02-23T12:45:05.606Z,12.89
2018-02-23T12:46:05.429Z,12.97
2018-02-23T12:47:05.518Z,12.88
2018-02-23T12:48:05.409Z,12.74
2018-02-23T12:49:05.536Z,12.46
2018-02-23T12:50:05.370Z,12.42
2018-02-23T12:51:05.443Z,12.45
2018-02-23T12:52:05.340Z,12.54
2018-02-23T12:53:05.459Z,12.44
2018-02-23T12:54:05.329Z,12.33
2018-02-23T12:55:05.472Z,12.04
2018-02-23T12:56:05.286Z,12.08
2018-02-23T12:57:05.378Z,12.24
2018-02-23T12:58:05.261Z,12.19
2018-02-23T12:59:05.399Z,11.82
2018-02-23T13:00:05.226Z,11.68
2018-02-23T13:01:05.320Z,11.65
2018-02-23T13:02:05.194Z,11.53
2018-02-23T13:03:05.326Z,11.38
2018-02-23T13:04:05.160Z,11.21
2018-02-23T13:05:05.246Z,11.24
2018-02-23T13:06:05.128Z,11.09
2018-02-23T13:07:05.244Z,11.16
2018-02-23T13:08:05.097Z,10.81